createdAt,value
2022-09-14T00:00:42.468Z,2.80
2022-09-14T00:01:44.552Z,3.17
2022-09-14T00:02:46.786Z,3.17
2022-09-14T00:03:52.988Z,3.40
2022-09-14T00:04:54.750Z,2.83
2022-09-14T00:05:56.402Z,3.00
2022-09-14T00:06:58.487Z,3.00
2022-09-14T00:08:00.139Z,2.80
2022-09-14T00:09:02.860Z,2.70
2022-09-14T00:10:05.042Z,2.72
2022-09-14T00:11:09.601Z,2.78
2022-09-14T00:12:11.316Z,2.90
2022-09-14T00:13:14.513Z,2.30
2022-09-14T00:14:17.081Z,2.72
2022-09-14T00:15:18.853Z,2.92
2022-09-14T00:16:26.713Z,2.63
2022-09-14T00:17:28.392Z,3.03
2022-09-14T00:18:30.116Z,2.92
2022-09-14T00:19:31.775Z,2.97
2022-09-14T00:20:34.200Z,2.63
2022-09-14T00:21:37.823Z,3.13
2022-09-14T00:22:39.783Z,2.80
2022-09-14T00:23:42.276Z,2.72
2022-09-14T00:24:43.913Z,2.33
2022-09-14T00:25:45.636Z,3.10
2022-09-14T00:26:47.319Z,2.75
2022-09-14T00:27:51.325Z,3.22
2022-09-14T00:28:57.133Z,3.35
2022-09-14T00:29:58.962Z,2.97
2022-09-14T00:31:00.647Z,3.10
2022-09-14T00:32:02.889Z,3.00
2022-09-14T00:33:04.745Z,2.72
2022-09-14T00:34:09.386Z,2.80
2022-09-14T00:35:11.148Z,3.00
2022-09-14T00:36:18.767Z,2.80
2022-09-14T00:37:20.436Z,3.13
2022-09-14T00:38:22.122Z,3.00
2022-09-14T00:39:24.836Z,2.90
2022-09-14T00:40:26.624Z,2.60
2022-09-14T00:41:34.588Z,3.10
2022-09-14T00:42:37.193Z,3.40
2022-09-14T00:43:55.788Z,2.95
2022-09-14T00:45:21.831Z,3.00
2022-09-14T00:46:24.803Z,2.88
2022-09-14T00:47:27.852Z,2.60
2022-09-14T00:48:30.226Z,2.90
2022-09-14T00:49:35.795Z,3.00
2022-09-14T00:50:37.602Z,2.75
2022-09-14T00:51:45.985Z,2.88
2022-09-14T00:52:50.443Z,3.00
2022-09-14T00:53:52.584Z,2.92
2022-09-14T00:55:00.352Z,2.65
2022-09-14T00:56:02.222Z,3.40
2022-09-14T00:57:04.094Z,3.10
2022-09-14T00:58:05.819Z,2.97
2022-09-14T00:59:16.107Z,3.05
2022-09-14T01:00:22.405Z,3.20
2022-09-14T01:01:25.964Z,2.80
2022-09-14T01:02:28.726Z,3.03
2022-09-14T01:03:30.440Z,3.13
2022-09-14T01:04:32.123Z,3.22
2022-09-14T01:06:02.171Z,3.38
2022-09-14T01:07:10.036Z,3.20
2022-09-14T01:08:32.987Z,3.05
2022-09-14T01:09:58.842Z,3.00
2022-09-14T01:11:11.778Z,3.20
2022-09-14T01:12:59.495Z,3.22
2022-09-14T01:14:16.663Z,3.10
2022-09-14T01:15:35.355Z,3.22
2022-09-14T01:17:05.910Z,3.17
2022-09-14T01:18:24.595Z,3.63
2022-09-14T01:19:38.822Z,3.38
2022-09-14T01:20:55.359Z,3.33
2022-09-14T01:22:16.747Z,3.50
2022-09-14T01:24:36.678Z,3.60
2022-09-14T01:26:14.050Z,4.00
2022-09-14T01:27:41.572Z,3.40
2022-09-14T01:29:04.656Z,3.60
2022-09-14T01:30:12.941Z,3.45
2022-09-14T01:32:49.715Z,3.25
2022-09-14T01:34:05.417Z,3.33
2022-09-14T01:35:30.325Z,3.80
2022-09-14T01:36:36.569Z,3.50
2022-09-14T01:37:50.560Z,3.53
2022-09-14T01:38:55.364Z,3.55
2022-09-14T01:40:14.730Z,3.90
2022-09-14T01:41:20.980Z,3.90
2022-09-14T01:42:26.296Z,3.72
2022-09-14T01:43:40.863Z,3.55
2022-09-14T01:44:45.463Z,3.90
2022-09-14T01:45:59.213Z,3.70
2022-09-14T01:47:16.849Z,3.58
2022-09-14T01:48:23.384Z,3.83
2022-09-14T01:49:35.118Z,3.78
2022-09-14T01:50:44.018Z,3.97
2022-09-14T01:51:54.036Z,3.90
2022-09-14T01:53:07.568Z,3.92
2022-09-14T01:54:20.332Z,3.50
2022-09-14T01:55:28.457Z,4.10
2022-09-14T01:56:38.891Z,4.20
2022-09-14T01:57:45.783Z,4.28
2022-09-14T01:59:10.937Z,4.55
2022-09-14T02:00:17.550Z,4.05
2022-09-14T02:01:33.572Z,3.75
2022-09-14T02:02:40.567Z,4.43
2022-09-14T02:03:53.609Z,4.30
2022-09-14T02:05:01.475Z,4.40
2022-09-14T02:06:10.962Z,4.22
2022-09-14T02:07:13.121Z,4.57
2022-09-14T02:08:14.949Z,4.43
2022-09-14T02:09:22.744Z,4.18
2022-09-14T02:10:25.198Z,4.63
2022-09-14T02:11:26.956Z,4.15
2022-09-14T02:12:28.943Z,4.80
2022-09-14T02:13:30.830Z,4.15
2022-09-14T02:14:33.134Z,3.90
2022-09-14T02:15:37.218Z,4.22
2022-09-14T02:16:43.322Z,4.57
2022-09-14T02:17:46.091Z,4.43
2022-09-14T02:18:47.804Z,4.70
2022-09-14T02:20:00.700Z,4.68
2022-09-14T02:21:10.441Z,4.47
2022-09-14T02:22:12.237Z,4.50
2022-09-14T02:23:14.151Z,4.18
2022-09-14T02:24:16.269Z,4.53
2022-09-14T02:25:19.109Z,4.82
2022-09-14T02:26:22.836Z,4.57
2022-09-14T02:27:25.081Z,4.85
2022-09-14T02:28:26.756Z,4.53
2022-09-14T02:29:28.675Z,4.72
2022-09-14T02:30:35.170Z,5.35
2022-09-14T02:31:50.491Z,4.90
2022-09-14T02:33:14.224Z,4.05
2022-09-14T02:34:36.929Z,4.45
2022-09-14T02:35:47.198Z,4.43
2022-09-14T02:37:07.580Z,4.60
2022-09-14T02:38:20.388Z,4.75
2022-09-14T02:39:44.580Z,4.55
2022-09-14T02:41:37.415Z,4.55
2022-09-14T02:42:59.329Z,4.78
2022-09-14T02:44:05.273Z,4.88
2022-09-14T02:45:09.950Z,4.80
2022-09-14T02:46:32.414Z,5.03
2022-09-14T02:47:56.648Z,5.13
2022-09-14T02:49:31.796Z,4.90
2022-09-14T02:50:41.481Z,4.93
2022-09-14T02:52:12.505Z,4.88
2022-09-14T02:53:37.901Z,5.13
2022-09-14T02:55:02.173Z,5.03
2022-09-14T02:56:08.700Z,4.80
2022-09-14T02:57:10.552Z,4.78
2022-09-14T02:58:13.905Z,4.57
2022-09-14T02:59:16.092Z,4.32
2022-09-14T03:00:17.823Z,4.63
2022-09-14T03:01:24.137Z,4.57
2022-09-14T03:02:26.294Z,4.55
2022-09-14T03:03:31.199Z,4.60
2022-09-14T03:04:35.149Z,4.65
2022-09-14T03:05:37.262Z,4.80
2022-09-14T03:06:38.917Z,4.90
2022-09-14T03:07:40.568Z,4.50
2022-09-14T03:08:43.891Z,4.47
2022-09-14T03:09:45.815Z,5.00
2022-09-14T03:10:47.499Z,4.60
2022-09-14T03:11:49.161Z,4.80
2022-09-14T03:12:50.849Z,4.90
2022-09-14T03:13:52.627Z,4.90
2022-09-14T03:14:54.458Z,5.07
2022-09-14T03:15:56.419Z,4.72
2022-09-14T03:16:58.263Z,4.85
2022-09-14T03:17:59.968Z,5.28
2022-09-14T03:19:01.658Z,5.10
2022-09-14T03:20:04.383Z,5.00
2022-09-14T03:21:17.439Z,4.55
2022-09-14T03:22:19.215Z,5.25
2022-09-14T03:23:20.875Z,4.95
2022-09-14T03:24:22.543Z,5.60
2022-09-14T03:25:24.214Z,5.30
2022-09-14T03:26:28.968Z,5.40
2022-09-14T03:27:30.640Z,5.28
2022-09-14T03:28:32.307Z,5.70
2022-09-14T03:29:33.970Z,5.35
2022-09-14T03:30:36.300Z,5.53
2022-09-14T03:31:38.043Z,5.43
2022-09-14T03:32:39.788Z,5.53
2022-09-14T03:33:41.738Z,5.90
2022-09-14T03:34:43.418Z,6.07
2022-09-14T03:35:45.079Z,5.82
2022-09-14T03:36:46.865Z,6.38
2022-09-14T03:37:48.572Z,6.05
2022-09-14T03:38:52.815Z,5.72
2022-09-14T03:39:54.678Z,5.97
2022-09-14T03:40:57.975Z,6.47
2022-09-14T03:41:59.700Z,6.80
2022-09-14T03:43:01.591Z,6.30
2022-09-14T03:44:03.409Z,6.70
2022-09-14T03:45:05.689Z,7.43
2022-09-14T03:46:13.142Z,7.10
2022-09-14T03:47:14.909Z,7.40
2022-09-14T03:48:16.803Z,7.45
2022-09-14T03:49:18.636Z,6.97
2022-09-14T03:50:20.438Z,6.68
2022-09-14T03:51:22.970Z,7.10
2022-09-14T03:52:24.758Z,7.85
2022-09-14T03:53:26.572Z,7.28
2022-09-14T03:54:28.321Z,7.38
2022-09-14T03:55:30.082Z,7.35
2022-09-14T03:56:31.882Z,7.57
2022-09-14T03:57:33.720Z,8.32
2022-09-14T03:58:35.393Z,7.93
2022-09-14T03:59:41.678Z,8.38
2022-09-14T04:00:45.577Z,8.43
2022-09-14T04:01:47.548Z,8.60
2022-09-14T04:02:49.476Z,8.63
2022-09-14T04:03:51.435Z,8.75
2022-09-14T04:04:53.901Z,8.80
2022-09-14T04:05:56.525Z,8.43
2022-09-14T04:06:59.216Z,9.13
2022-09-14T04:08:00.938Z,8.45
2022-09-14T04:09:02.691Z,9.25
2022-09-14T04:10:05.686Z,9.38
2022-09-14T04:11:14.619Z,9.18
2022-09-14T04:12:16.356Z,9.05
2022-09-14T04:13:18.141Z,9.35
2022-09-14T04:14:19.953Z,10.13
2022-09-14T04:15:21.600Z,9.52
2022-09-14T04:16:23.320Z,8.95
2022-09-14T04:17:25.219Z,9.00
2022-09-14T04:18:27.543Z,9.02
2022-09-14T04:19:29.208Z,9.27
2022-09-14T04:20:30.853Z,9.50
2022-09-14T04:21:32.969Z,8.85
2022-09-14T04:22:34.803Z,8.98
2022-09-14T04:23:56.683Z,9.90
2022-09-14T04:24:58.545Z,9.20
2022-09-14T04:26:00.312Z,9.20
2022-09-14T04:27:02.179Z,9.82
2022-09-14T04:28:19.807Z,10.00
2022-09-14T04:29:22.170Z,9.88
2022-09-14T04:30:24.079Z,10.43
2022-09-14T04:31:26.445Z,9.30
2022-09-14T04:32:32.206Z,9.60
2022-09-14T04:33:36.819Z,9.77
2022-09-14T04:34:38.677Z,9.50
2022-09-14T04:35:40.515Z,10.43
2022-09-14T04:36:42.764Z,9.98
2022-09-14T04:37:44.424Z,10.40
2022-09-14T04:38:46.945Z,9.63
2022-09-14T04:39:48.746Z,9.75
2022-09-14T04:40:50.467Z,10.50
2022-09-14T04:41:52.331Z,9.43
2022-09-14T04:42:54.266Z,10.65
2022-09-14T04:43:57.232Z,10.27
2022-09-14T04:44:58.971Z,9.77
2022-09-14T04:46:28.175Z,10.50
2022-09-14T04:47:30.013Z,10.48
2022-09-14T04:48:35.313Z,9.57
2022-09-14T04:49:37.023Z,10.88
2022-09-14T04:50:38.702Z,10.50
2022-09-14T04:51:40.427Z,10.20
2022-09-14T04:52:42.070Z,10.90
2022-09-14T04:53:45.665Z,10.00
2022-09-14T04:54:47.355Z,11.15
2022-09-14T04:55:49.028Z,10.75
2022-09-14T04:56:50.706Z,10.57
2022-09-14T04:57:52.370Z,10.65
2022-09-14T04:58:58.632Z,11.65
2022-09-14T05:00:00.710Z,11.48
2022-09-14T05:01:08.481Z,11.55
2022-09-14T05:02:10.247Z,12.23
2022-09-14T05:03:11.994Z,12.20
2022-09-14T05:04:13.922Z,11.57
2022-09-14T05:05:15.724Z,11.93
2022-09-14T05:06:22.964Z,11.60
2022-09-14T05:07:24.711Z,11.57
2022-09-14T05:08:26.796Z,11.75
2022-09-14T05:09:28.653Z,11.73
2022-09-14T05:10:30.377Z,11.82
2022-09-14T05:11:34.668Z,12.15
2022-09-14T05:12:36.743Z,11.55
2022-09-14T05:13:38.439Z,12.05
2022-09-14T05:14:40.725Z,12.25
2022-09-14T05:15:47.065Z,12.55
2022-09-14T05:16:52.259Z,12.27
2022-09-14T05:17:55.094Z,11.85
2022-09-14T05:19:02.620Z,12.32
2022-09-14T05:20:04.729Z,11.82
2022-09-14T05:21:10.420Z,12.00
2022-09-14T05:22:12.321Z,12.65
2022-09-14T05:23:14.159Z,12.07
2022-09-14T05:24:18.732Z,11.90
2022-09-14T05:25:20.449Z,11.38
2022-09-14T05:26:23.803Z,11.60
2022-09-14T05:27:25.517Z,11.82
2022-09-14T05:28:27.850Z,12.10
2022-09-14T05:29:30.033Z,12.05
2022-09-14T05:30:31.699Z,11.90
2022-09-14T05:31:33.807Z,12.10
2022-09-14T05:32:35.694Z,11.88
2022-09-14T05:33:38.121Z,12.15
2022-09-14T05:34:40.023Z,12.65
2022-09-14T05:35:41.744Z,11.88
2022-09-14T05:36:43.681Z,12.65
2022-09-14T05:37:45.612Z,11.68
2022-09-14T05:38:47.935Z,13.05
2022-09-14T05:39:49.898Z,13.43
2022-09-14T05:40:55.047Z,13.63
2022-09-14T05:41:56.761Z,13.05
2022-09-14T05:42:58.449Z,14.00
2022-09-14T05:44:00.153Z,14.25
2022-09-14T05:45:02.036Z,14.13
2022-09-14T05:46:06.400Z,13.85
2022-09-14T05:47:08.164Z,13.55
2022-09-14T05:48:09.832Z,12.85
2022-09-14T05:49:11.620Z,13.10
2022-09-14T05:50:15.972Z,13.93
2022-09-14T05:51:20.171Z,13.80
2022-09-14T05:52:21.959Z,14.38
2022-09-14T05:53:23.751Z,14.63
2022-09-14T05:54:25.783Z,13.50
2022-09-14T05:55:27.458Z,13.63
2022-09-14T05:56:31.773Z,14.60
2022-09-14T05:57:33.890Z,14.70
2022-09-14T05:58:37.083Z,13.98
2022-09-14T05:59:39.026Z,14.48
2022-09-14T06:00:40.886Z,14.40
2022-09-14T06:01:42.622Z,13.95
2022-09-14T06:02:52.756Z,14.48
2022-09-14T06:03:56.223Z,14.48
2022-09-14T06:04:57.959Z,13.20
2022-09-14T06:06:00.019Z,12.63
2022-09-14T06:07:17.814Z,12.70
2022-09-14T06:08:20.859Z,14.00
2022-09-14T06:09:22.599Z,12.68
2022-09-14T06:10:24.271Z,13.20
2022-09-14T06:11:28.948Z,13.80
2022-09-14T06:12:30.823Z,12.55
2022-09-14T06:13:32.917Z,12.75
2022-09-14T06:14:34.924Z,13.30
2022-09-14T06:15:36.585Z,14.35
2022-09-14T06:16:38.293Z,12.88
2022-09-14T06:17:39.972Z,13.88
2022-09-14T06:18:43.183Z,14.73
2022-09-14T06:19:44.843Z,14.02
2022-09-14T06:20:52.552Z,13.75
2022-09-14T06:21:54.431Z,13.82
2022-09-14T06:22:56.084Z,13.30
2022-09-14T06:23:58.135Z,13.43
2022-09-14T06:24:59.842Z,14.70
2022-09-14T06:26:03.172Z,13.55
2022-09-14T06:27:05.179Z,14.77
2022-09-14T06:28:06.820Z,14.20
2022-09-14T06:29:08.601Z,14.32
2022-09-14T06:30:10.887Z,14.13
2022-09-14T06:31:17.778Z,14.25
2022-09-14T06:32:20.631Z,13.80
2022-09-14T06:33:22.890Z,13.25
2022-09-14T06:34:24.571Z,14.15
2022-09-14T06:35:26.254Z,14.32
2022-09-14T06:36:28.854Z,14.40
2022-09-14T06:37:30.504Z,13.10
2022-09-14T06:38:33.117Z,13.38
2022-09-14T06:39:34.900Z,13.70
2022-09-14T06:40:36.564Z,13.38
2022-09-14T06:41:38.370Z,13.63
2022-09-14T06:42:40.011Z,13.52
2022-09-14T06:43:42.978Z,14.07
2022-09-14T06:44:44.665Z,13.20
2022-09-14T06:46:12.088Z,13.45
2022-09-14T06:47:13.868Z,13.85
2022-09-14T06:48:15.701Z,14.07
2022-09-14T06:49:20.611Z,12.57
2022-09-14T06:50:22.324Z,12.43
2022-09-14T06:51:34.346Z,12.40
2022-09-14T06:52:37.038Z,13.52
2022-09-14T06:53:38.695Z,12.75
2022-09-14T06:54:40.347Z,13.13
2022-09-14T06:55:42.800Z,13.65
2022-09-14T06:56:46.414Z,13.20
2022-09-14T06:57:48.944Z,12.93
2022-09-14T06:58:52.194Z,12.63
2022-09-14T06:59:53.879Z,13.20
2022-09-14T07:01:00.785Z,12.30
2022-09-14T07:02:02.511Z,12.10
2022-09-14T07:03:04.481Z,12.60
2022-09-14T07:04:07.160Z,13.68
2022-09-14T07:05:09.395Z,12.90
2022-09-14T07:06:16.686Z,12.48
2022-09-14T07:07:18.505Z,13.82
2022-09-14T07:08:28.914Z,11.98
2022-09-14T07:09:31.785Z,13.18
2022-09-14T07:10:34.978Z,12.95
2022-09-14T07:11:37.087Z,12.27
2022-09-14T07:12:38.920Z,12.55
2022-09-14T07:13:41.023Z,12.30
2022-09-14T07:14:42.662Z,12.43
2022-09-14T07:15:50.095Z,12.10
2022-09-14T07:16:51.757Z,12.57
2022-09-14T07:17:53.820Z,13.68
2022-09-14T07:18:57.393Z,12.60
2022-09-14T07:19:59.035Z,12.82
2022-09-14T07:21:07.060Z,12.45
2022-09-14T07:22:08.939Z,13.35
2022-09-14T07:23:13.021Z,12.60
2022-09-14T07:24:17.493Z,12.63
2022-09-14T07:25:19.187Z,11.95
2022-09-14T07:26:23.497Z,11.88
2022-09-14T07:27:25.291Z,12.63
2022-09-14T07:28:27.427Z,12.65
2022-09-14T07:29:29.136Z,12.63
2022-09-14T07:30:30.829Z,12.35
2022-09-14T07:31:48.867Z,12.00
2022-09-14T07:32:50.633Z,12.73
2022-09-14T07:33:57.157Z,12.00
2022-09-14T07:34:58.931Z,10.90
2022-09-14T07:36:08.474Z,11.57
2022-09-14T07:37:10.644Z,11.10
2022-09-14T07:38:12.384Z,10.77
2022-09-14T07:39:16.631Z,10.77
2022-09-14T07:40:18.394Z,11.05
2022-09-14T07:41:26.327Z,10.77
2022-09-14T07:42:28.215Z,10.50
2022-09-14T07:43:30.324Z,10.77
2022-09-14T07:44:32.144Z,11.10
2022-09-14T07:45:35.311Z,10.98
2022-09-14T07:46:40.475Z,10.65
2022-09-14T07:47:42.630Z,10.55
2022-09-14T07:48:44.743Z,10.20
2022-09-14T07:49:46.618Z,10.52
2022-09-14T07:50:49.163Z,10.25
2022-09-14T07:51:52.800Z,9.82
2022-09-14T07:52:54.499Z,10.00
2022-09-14T07:53:57.187Z,9.50
2022-09-14T07:54:59.061Z,9.75
2022-09-14T07:56:01.733Z,9.55
2022-09-14T07:57:03.575Z,9.82
2022-09-14T07:58:05.954Z,10.48
2022-09-14T07:59:34.523Z,10.85
2022-09-14T08:00:31.499Z,10.23
2022-09-14T08:01:34.116Z,10.50
2022-09-14T08:02:38.397Z,10.90
2022-09-14T08:03:43.131Z,10.20
2022-09-14T08:04:44.871Z,10.30
2022-09-14T08:05:46.715Z,10.45
2022-09-14T08:06:48.570Z,10.63
2022-09-14T08:07:56.752Z,10.05
2022-09-14T08:08:59.176Z,9.73
2022-09-14T08:10:02.167Z,9.90
2022-09-14T08:11:11.188Z,10.00
2022-09-14T08:12:16.265Z,10.60
2022-09-14T08:13:18.313Z,10.02
2022-09-14T08:14:20.608Z,10.43
2022-09-14T08:15:28.280Z,10.02
2022-09-14T08:16:32.094Z,10.45
2022-09-14T08:17:33.801Z,10.32
2022-09-14T08:18:37.252Z,10.27
2022-09-14T08:19:41.260Z,10.60
2022-09-14T08:20:43.234Z,10.60
2022-09-14T08:21:47.669Z,10.85
2022-09-14T08:22:49.820Z,11.20
2022-09-14T08:23:52.290Z,11.38
2022-09-14T08:24:54.099Z,10.80
2022-09-14T08:25:55.911Z,11.20
2022-09-14T08:26:57.722Z,11.38
2022-09-14T08:28:01.389Z,10.80
2022-09-14T08:29:04.909Z,10.38
2022-09-14T08:30:07.155Z,10.32
2022-09-14T08:31:14.786Z,10.25
2022-09-14T08:32:16.576Z,11.68
2022-09-14T08:33:18.655Z,10.82
2022-09-14T08:34:20.887Z,11.60
2022-09-14T08:35:40.760Z,10.77
2022-09-14T08:36:45.960Z,10.52
2022-09-14T08:37:47.785Z,11.68
2022-09-14T08:38:50.061Z,11.15
2022-09-14T08:39:59.770Z,11.27
2022-09-14T08:41:16.178Z,10.73
2022-09-14T08:42:20.847Z,10.40
2022-09-14T08:43:25.280Z,10.27
2022-09-14T08:44:42.688Z,10.35
2022-09-14T08:45:45.879Z,10.90
2022-09-14T08:46:58.970Z,11.93
2022-09-14T08:48:01.076Z,11.82
2022-09-14T08:49:10.038Z,11.50
2022-09-14T08:50:18.659Z,11.13
2022-09-14T08:51:20.760Z,11.10
2022-09-14T08:52:34.614Z,11.57
2022-09-14T08:53:39.912Z,11.63
2022-09-14T08:54:41.775Z,11.20
2022-09-14T08:55:50.458Z,11.73
2022-09-14T08:57:25.910Z,11.50
2022-09-14T08:59:11.130Z,11.38
2022-09-14T09:00:20.930Z,11.77
2022-09-14T09:02:03.225Z,11.45
2022-09-14T09:03:26.439Z,11.75
2022-09-14T09:04:54.428Z,12.13
2022-09-14T09:06:10.897Z,11.80
2022-09-14T09:07:26.916Z,11.32
2022-09-14T09:08:45.177Z,11.50
2022-09-14T09:09:49.755Z,11.80
2022-09-14T09:10:54.423Z,11.23
2022-09-14T09:11:56.365Z,11.85
2022-09-14T09:13:01.070Z,11.45
2022-09-14T09:14:21.652Z,12.05
2022-09-14T09:15:34.008Z,11.60
2022-09-14T09:16:37.928Z,11.98
2022-09-14T09:17:44.460Z,11.60
2022-09-14T09:18:49.711Z,12.02
2022-09-14T09:19:58.007Z,11.93
2022-09-14T09:21:11.722Z,12.75
2022-09-14T09:22:19.078Z,11.77
2022-09-14T09:23:22.947Z,12.23
2022-09-14T09:24:37.097Z,12.05
2022-09-14T09:25:46.060Z,18.00
2022-09-14T09:26:47.992Z,11.25
2022-09-14T09:27:51.496Z,12.13
2022-09-14T09:28:57.028Z,12.13
2022-09-14T09:29:58.876Z,12.30
2022-09-14T09:31:14.601Z,12.35
2022-09-14T09:32:23.756Z,11.93
2022-09-14T09:33:27.417Z,11.63
2022-09-14T09:34:30.389Z,11.50
2022-09-14T09:35:33.382Z,11.73
2022-09-14T09:36:39.224Z,13.60
2022-09-14T09:37:41.150Z,11.80
2022-09-14T09:38:43.047Z,11.85
2022-09-14T09:39:45.407Z,12.25
2022-09-14T09:40:51.663Z,12.10
2022-09-14T09:42:01.072Z,12.27
2022-09-14T09:43:21.295Z,12.38
2022-09-14T09:45:07.889Z,11.63
2022-09-14T09:46:11.326Z,12.27
2022-09-14T09:47:13.426Z,11.73
2022-09-14T09:48:17.600Z,11.30
2022-09-14T09:49:26.229Z,12.43
2022-09-14T09:50:28.267Z,11.73
2022-09-14T09:51:34.782Z,11.75
2022-09-14T09:52:36.861Z,11.77
2022-09-14T09:53:50.767Z,12.00
2022-09-14T09:54:54.282Z,12.20
2022-09-14T09:55:57.365Z,11.93
2022-09-14T09:57:00.644Z,12.73
2022-09-14T09:58:28.998Z,11.18
2022-09-14T09:59:38.888Z,10.70
2022-09-14T10:00:41.197Z,10.93
2022-09-14T10:01:43.265Z,10.73
2022-09-14T10:02:45.453Z,9.82
2022-09-14T10:04:08.868Z,10.15
2022-09-14T10:05:11.317Z,9.18
2022-09-14T10:06:14.908Z,9.82
2022-09-14T10:07:22.015Z,9.50
2022-09-14T10:08:23.754Z,9.90
2022-09-14T10:09:27.690Z,9.73
2022-09-14T10:10:35.279Z,9.45
2022-09-14T10:11:38.401Z,9.50
2022-09-14T10:12:49.691Z,9.15
2022-09-14T10:13:51.868Z,9.25
2022-09-14T10:15:34.581Z,9.05
2022-09-14T10:16:40.646Z,8.68
2022-09-14T10:18:01.114Z,8.10
2022-09-14T10:19:03.593Z,8.27
2022-09-14T10:20:07.152Z,7.55
2022-09-14T10:21:09.752Z,7.80
2022-09-14T10:22:22.976Z,8.40
2022-09-14T10:23:30.383Z,8.20
2022-09-14T10:24:34.762Z,8.13
2022-09-14T10:25:36.484Z,7.60
2022-09-14T10:26:38.297Z,8.43
2022-09-14T10:27:58.660Z,8.07
2022-09-14T10:29:30.504Z,7.70
2022-09-14T10:30:45.357Z,8.18
2022-09-14T10:31:48.514Z,8.02
2022-09-14T10:32:56.554Z,7.15
2022-09-14T10:33:58.854Z,7.07
2022-09-14T10:35:03.028Z,7.70
2022-09-14T10:36:23.549Z,7.07
2022-09-14T10:37:43.861Z,6.93
2022-09-14T10:39:10.484Z,7.22
2022-09-14T10:40:44.328Z,7.22
2022-09-14T10:42:17.884Z,6.65
2022-09-14T10:43:38.622Z,7.38
2022-09-14T10:44:58.926Z,6.80
2022-09-14T10:46:05.173Z,7.00
2022-09-14T10:47:10.038Z,7.20
2022-09-14T10:48:14.684Z,6.97
2022-09-14T10:49:45.111Z,6.60
2022-09-14T10:50:49.251Z,7.47
2022-09-14T10:52:04.317Z,7.28
2022-09-14T10:53:29.525Z,7.30
2022-09-14T10:55:05.155Z,7.03
2022-09-14T10:56:23.610Z,7.43
2022-09-14T10:57:45.940Z,6.88
2022-09-14T10:58:57.057Z,6.97
2022-09-14T11:00:14.851Z,6.75
2022-09-14T11:01:44.061Z,6.78
2022-09-14T11:02:48.819Z,5.43
2022-09-14T11:04:02.452Z,5.63
2022-09-14T11:05:22.611Z,5.35
2022-09-14T11:06:36.305Z,5.25
2022-09-14T11:07:49.503Z,4.82
2022-09-14T11:09:06.559Z,4.80
2022-09-14T11:10:25.455Z,4.45
2022-09-14T11:11:40.889Z,4.50
2022-09-14T11:13:00.762Z,4.80
2022-09-14T11:14:11.428Z,4.50
2022-09-14T11:15:32.370Z,4.40
2022-09-14T11:16:50.622Z,4.40
2022-09-14T11:18:11.233Z,4.53
2022-09-14T11:19:22.953Z,4.30
2022-09-14T11:20:34.318Z,4.10
2022-09-14T11:21:52.329Z,4.03
2022-09-14T11:23:05.651Z,4.10
2022-09-14T11:24:36.187Z,4.00
2022-09-14T11:25:46.888Z,4.13
2022-09-14T11:26:55.094Z,4.70
2022-09-14T11:28:08.912Z,4.60
2022-09-14T11:29:31.622Z,4.13
2022-09-14T11:30:43.039Z,4.20
2022-09-14T11:32:22.815Z,4.50
2022-09-14T11:34:06.341Z,3.60
2022-09-14T11:35:36.936Z,4.10
2022-09-14T11:36:45.948Z,3.97
2022-09-14T11:37:53.873Z,3.55
2022-09-14T11:39:06.981Z,3.80
2022-09-14T11:40:24.338Z,4.07
2022-09-14T11:41:44.591Z,3.20
2022-09-14T11:42:55.171Z,3.70
2022-09-14T11:44:10.685Z,4.45
2022-09-14T11:45:22.919Z,4.38
2022-09-14T11:46:35.896Z,4.07
2022-09-14T11:47:44.500Z,3.53
2022-09-14T11:49:08.226Z,3.63
2022-09-14T11:50:21.167Z,3.63
2022-09-14T11:51:36.420Z,3.70
2022-09-14T11:52:38.129Z,3.80
2022-09-14T11:53:42.957Z,3.70
2022-09-14T11:54:46.996Z,3.50
2022-09-14T11:55:51.031Z,3.88
2022-09-14T11:57:00.730Z,4.07
2022-09-14T11:58:07.095Z,3.42
2022-09-14T11:59:50.265Z,4.20
2022-09-14T12:00:51.891Z,4.15
2022-09-14T12:01:53.574Z,4.53
2022-09-14T12:03:13.277Z,5.15
2022-09-14T12:04:18.035Z,4.30
2022-09-14T12:05:30.360Z,3.90
2022-09-14T12:06:31.991Z,4.10
2022-09-14T12:07:50.153Z,5.40
2022-09-14T12:08:51.818Z,5.10
2022-09-14T12:09:53.959Z,4.88
2022-09-14T12:11:26.697Z,5.20
2022-09-14T12:12:31.338Z,4.47
2022-09-14T12:13:33.406Z,5.63
2022-09-14T12:14:36.613Z,4.90
2022-09-14T12:15:41.228Z,5.25
2022-09-14T12:17:38.215Z,4.75
2022-09-14T12:18:42.428Z,4.20
2022-09-14T12:19:46.513Z,3.80
2022-09-14T12:21:01.174Z,4.07
2022-09-14T12:22:19.515Z,4.72
2022-09-14T12:23:31.946Z,4.05
2022-09-14T12:24:33.949Z,4.50
2022-09-14T12:25:39.043Z,4.68
2022-09-14T12:26:40.930Z,4.95
2022-09-14T12:27:45.992Z,4.53
2022-09-14T12:28:48.973Z,4.38
2022-09-14T12:29:50.900Z,4.75
2022-09-14T12:30:53.506Z,4.55
2022-09-14T12:31:55.193Z,4.30
2022-09-14T12:32:57.072Z,3.88
2022-09-14T12:34:14.173Z,3.95
2022-09-14T12:35:36.471Z,4.15
2022-09-14T12:36:38.452Z,4.18
2022-09-14T12:37:40.269Z,4.07
2022-09-14T12:39:03.853Z,4.35
2022-09-14T12:40:13.066Z,3.63
2022-09-14T12:41:15.926Z,4.07
2022-09-14T12:42:32.231Z,3.88
2022-09-14T12:43:36.829Z,4.03
2022-09-14T12:44:42.924Z,3.88
2022-09-14T12:46:04.109Z,4.60
2022-09-14T12:47:24.427Z,4.03
2022-09-14T12:48:53.029Z,4.15
2022-09-14T12:50:00.874Z,4.80
2022-09-14T12:51:04.598Z,3.65
2022-09-14T12:52:20.265Z,3.85
2022-09-14T12:53:30.158Z,4.00
2022-09-14T12:54:55.318Z,4.18
2022-09-14T12:56:04.500Z,3.72
2022-09-14T12:57:37.617Z,3.63
2022-09-14T12:59:02.305Z,3.25
2022-09-14T13:00:13.441Z,3.05
2022-09-14T13:01:29.816Z,2.53
2022-09-14T13:02:40.878Z,3.17
2022-09-14T13:04:58.079Z,2.58
2022-09-14T13:05:59.793Z,2.63
2022-09-14T13:07:06.048Z,2.72
2022-09-14T13:08:11.845Z,2.13
2022-09-14T13:09:28.954Z,2.10
2022-09-14T13:10:33.795Z,2.03
2022-09-14T13:11:41.377Z,2.17
2022-09-14T13:12:47.369Z,1.73
2022-09-14T13:13:49.608Z,2.00
2022-09-14T13:15:15.456Z,1.80
2022-09-14T13:16:35.197Z,1.58
2022-09-14T13:17:36.937Z,1.60
2022-09-14T13:18:38.880Z,1.73
2022-09-14T13:19:41.280Z,1.60
2022-09-14T13:20:54.567Z,1.73
2022-09-14T13:21:59.021Z,1.77
2022-09-14T13:23:01.903Z,1.70
2022-09-14T13:24:03.728Z,1.95
2022-09-14T13:25:05.879Z,1.77
2022-09-14T13:26:23.317Z,2.03
2022-09-14T13:27:34.117Z,1.75
2022-09-14T13:28:36.197Z,2.08
2022-09-14T13:29:38.057Z,1.83
2022-09-14T13:30:43.375Z,1.90
2022-09-14T13:31:45.942Z,1.80
2022-09-14T13:32:50.816Z,1.67
2022-09-14T13:33:54.372Z,1.60
2022-09-14T13:34:57.170Z,1.80
2022-09-14T13:36:02.760Z,1.40
2022-09-14T13:37:06.061Z,1.50
2022-09-14T13:38:27.940Z,1.92
2022-09-14T13:39:36.955Z,1.60
2022-09-14T13:40:38.769Z,1.70
2022-09-14T13:41:43.593Z,1.85
2022-09-14T13:42:45.568Z,1.38
2022-09-14T13:43:47.529Z,1.45
2022-09-14T13:44:50.427Z,1.55
2022-09-14T13:45:52.431Z,1.52
2022-09-14T13:46:57.875Z,1.40
2022-09-14T13:47:59.735Z,1.40
2022-09-14T13:49:01.578Z,2.10
2022-09-14T13:50:05.876Z,1.38
2022-09-14T13:51:09.772Z,1.30
2022-09-14T13:52:33.968Z,1.60
2022-09-14T13:53:48.675Z,1.42
2022-09-14T13:54:53.499Z,1.33
2022-09-14T13:55:55.184Z,1.50
2022-09-14T13:57:24.356Z,1.33
2022-09-14T13:58:26.459Z,1.40
2022-09-14T13:59:28.158Z,1.40
2022-09-14T14:00:30.879Z,1.50
2022-09-14T14:01:36.610Z,1.90
2022-09-14T14:02:50.686Z,1.63
2022-09-14T14:03:52.844Z,1.52
2022-09-14T14:04:54.741Z,1.40
2022-09-14T14:05:57.245Z,1.70
2022-09-14T14:07:27.526Z,1.70
2022-09-14T14:08:38.676Z,1.65
2022-09-14T14:10:54.000Z,1.63
2022-09-14T14:11:55.822Z,1.50
2022-09-14T14:12:58.170Z,1.88
2022-09-14T14:14:13.148Z,1.80
2022-09-14T14:15:14.768Z,1.90
2022-09-14T14:16:29.327Z,1.92
2022-09-14T14:17:37.230Z,2.28
2022-09-14T14:18:41.567Z,2.63
2022-09-14T14:19:43.835Z,3.28
2022-09-14T14:20:45.776Z,2.92
2022-09-14T14:21:49.086Z,2.63
2022-09-14T14:23:10.859Z,2.95
2022-09-14T14:24:28.478Z,3.00
2022-09-14T14:25:46.031Z,2.78
2022-09-14T14:26:50.731Z,2.70
2022-09-14T14:28:00.453Z,3.20
2022-09-14T14:29:09.367Z,3.20
2022-09-14T14:30:16.460Z,3.28
2022-09-14T14:31:21.022Z,3.13
2022-09-14T14:32:23.913Z,2.60
2022-09-14T14:33:25.738Z,2.88
2022-09-14T14:34:29.699Z,3.38
2022-09-14T14:35:31.848Z,3.58
2022-09-14T14:36:33.819Z,2.88
2022-09-14T14:37:35.515Z,3.72
2022-09-14T14:38:37.711Z,3.40
2022-09-14T14:39:40.146Z,3.03
2022-09-14T14:40:42.921Z,3.95
2022-09-14T14:41:45.499Z,3.33
2022-09-14T14:42:50.587Z,3.45
2022-09-14T14:43:52.315Z,3.60
2022-09-14T14:44:54.506Z,3.42
2022-09-14T14:45:59.039Z,2.92
2022-09-14T14:47:00.844Z,2.63
2022-09-14T14:48:03.117Z,3.17
2022-09-14T14:49:04.929Z,3.03
2022-09-14T14:50:14.105Z,3.00